createdAt,value
2019-06-01T00:00:31.644Z,14.3
2019-06-01T00:03:00.106Z,14.3
2019-06-01T00:04:14.180Z,14.4
2019-06-01T00:06:42.553Z,14.3
2019-06-01T00:07:56.693Z,14.4
2019-06-01T00:09:10.979Z,14.4
2019-06-01T00:10:25.068Z,14.3
2019-06-01T00:11:39.231Z,14.3
2019-06-01T00:12:53.387Z,14.3
2019-06-01T00:14:07.633Z,14.2
2019-06-01T00:15:21.824Z,14.1
2019-06-01T00:16:36.205Z,14.1
2019-06-01T00:19:04.269Z,14
2019-06-01T00:20:21.748Z,13.9
2019-06-01T00:21:32.617Z,13.9
2019-06-01T00:22:46.805Z,13.9
2019-06-01T00:24:01.083Z,13.9
2019-06-01T00:25:15.144Z,13.7
2019-06-01T00:26:29.333Z,13.7
2019-06-01T00:27:43.597Z,13.8
2019-06-01T00:28:57.696Z,13.7
2019-06-01T00:30:11.889Z,13.6
2019-06-01T00:31:26.096Z,13.6
2019-06-01T00:32:40.311Z,13.6
2019-06-01T00:35:08.582Z,13.5
2019-06-01T00:36:22.774Z,13.5
2019-06-01T00:37:36.952Z,13.5
2019-06-01T00:38:51.217Z,13.5
2019-06-01T00:41:19.519Z,13.5
2019-06-01T00:43:47.961Z,13.4
2019-06-01T00:45:02.167Z,13.3
2019-06-01T00:46:16.233Z,13.4
2019-06-01T00:47:30.512Z,13.4
2019-06-01T00:48:44.583Z,13.4
2019-06-01T00:49:58.960Z,13.5
2019-06-01T00:51:12.945Z,13.5
2019-06-01T00:53:41.307Z,13.6
2019-06-01T00:54:55.498Z,13.7
2019-06-01T00:57:23.921Z,13.7
2019-06-01T00:58:38.108Z,13.7
2019-06-01T00:59:52.238Z,13.8
2019-06-01T01:01:06.375Z,13.7
2019-06-01T01:02:20.558Z,13.6
2019-06-01T01:03:34.817Z,13.6
2019-06-01T01:04:49.041Z,13.5
2019-06-01T01:06:03.293Z,13.4
2019-06-01T01:07:17.291Z,13.5
2019-06-01T01:08:31.493Z,13.4
2019-06-01T01:09:45.646Z,13.3
2019-06-01T01:10:59.814Z,13.2
2019-06-01T01:12:14.068Z,13.2
2019-06-01T01:13:28.241Z,13.3
2019-06-01T01:14:42.381Z,13.2
2019-06-01T01:15:56.622Z,13.1
2019-06-01T01:17:10.728Z,13.1
2019-06-01T01:18:24.909Z,13.1
2019-06-01T01:19:39.092Z,13
2019-06-01T01:20:53.419Z,13.1
2019-06-01T01:22:07.465Z,13.1
2019-06-01T01:23:21.641Z,13.1
2019-06-01T01:24:35.833Z,13.3
2019-06-01T01:25:50.045Z,13.3
2019-06-01T01:27:04.293Z,13.4
2019-06-01T01:29:32.585Z,13.4
2019-06-01T01:30:46.873Z,13.4
2019-06-01T01:32:00.939Z,13.5
2019-06-01T01:33:15.128Z,13.5
2019-06-01T01:34:29.421Z,13.4
2019-06-01T01:35:43.578Z,13.5
2019-06-01T01:36:57.673Z,13.5
2019-06-01T01:38:12.030Z,13.5
2019-06-01T01:39:26.048Z,13.5
2019-06-01T01:40:40.236Z,13.4
2019-06-01T01:43:08.690Z,13.3
2019-06-01T01:44:23.678Z,13.4
2019-06-01T01:45:36.955Z,13.3
2019-06-01T01:46:51.270Z,13.5
2019-06-01T01:48:05.298Z,13.4
2019-06-01T01:49:19.466Z,13.2
2019-06-01T01:50:33.751Z,13.2
2019-06-01T01:51:47.834Z,13.3
2019-06-01T01:53:02.019Z,13.2
2019-06-01T01:55:30.393Z,13.1
2019-06-01T01:56:44.569Z,13.1
2019-06-01T01:57:58.729Z,13.1
2019-06-01T01:59:12.990Z,13.1
2019-06-01T02:00:27.163Z,13.1
2019-06-01T02:01:41.280Z,13
2019-06-01T02:02:55.533Z,13.1
2019-06-01T02:04:09.646Z,13
2019-06-01T02:05:23.828Z,13.1
2019-06-01T02:07:52.214Z,13
2019-06-01T02:09:06.348Z,12.9
2019-06-01T02:10:22.236Z,12.9
2019-06-01T02:11:34.696Z,12.9
2019-06-01T02:12:48.985Z,12.8
2019-06-01T02:14:03.060Z,13
2019-06-01T02:15:17.244Z,12.9
2019-06-01T02:16:31.425Z,13
2019-06-01T02:17:45.597Z,13
2019-06-01T02:18:59.795Z,13
2019-06-01T02:20:13.962Z,13.1
2019-06-01T02:21:28.129Z,13
2019-06-01T02:22:42.339Z,12.9
2019-06-01T02:23:56.517Z,12.9
2019-06-01T02:25:10.703Z,12.9
2019-06-01T02:26:24.879Z,12.9
2019-06-01T02:27:40.198Z,12.8
2019-06-01T02:28:53.256Z,12.9
2019-06-01T02:30:07.414Z,12.8
2019-06-01T02:32:35.770Z,12.9
2019-06-01T02:33:49.955Z,12.9
2019-06-01T02:35:04.123Z,12.9
2019-06-01T02:36:18.314Z,12.8
2019-06-01T02:37:32.575Z,12.9
2019-06-01T02:38:46.672Z,12.9
2019-06-01T02:41:15.026Z,12.7
2019-06-01T02:42:29.326Z,12.7
2019-06-01T02:44:57.585Z,12.7
2019-06-01T02:46:11.849Z,12.7
2019-06-01T02:47:25.941Z,12.7
2019-06-01T02:48:40.286Z,12.6
2019-06-01T02:49:54.300Z,12.5
2019-06-01T02:51:08.478Z,12.6
2019-06-01T02:52:22.691Z,12.5
2019-06-01T02:53:36.847Z,12.6
2019-06-01T02:54:51.152Z,12.6
2019-06-01T02:57:19.524Z,12.6
2019-06-01T02:58:33.588Z,12.6
2019-06-01T02:59:47.774Z,12.7
2019-06-01T03:01:02.003Z,12.7
2019-06-01T03:02:16.134Z,12.7
2019-06-01T03:03:30.310Z,12.6
2019-06-01T03:04:44.517Z,12.7
2019-06-01T03:05:58.779Z,12.7
2019-06-01T03:07:12.952Z,12.5
2019-06-01T03:08:27.038Z,12.6
2019-06-01T03:09:41.266Z,12.6
2019-06-01T03:10:55.414Z,12.5
2019-06-01T03:12:09.714Z,12.5
2019-06-01T03:13:23.789Z,12.6
2019-06-01T03:14:38.053Z,12.5
2019-06-01T03:15:52.173Z,12.5
2019-06-01T03:18:20.587Z,12.5
2019-06-01T03:19:34.804Z,12.6
2019-06-01T03:20:48.878Z,12.6
2019-06-01T03:22:03.068Z,12.6
2019-06-01T03:23:17.265Z,12.6
2019-06-01T03:24:31.508Z,12.6
2019-06-01T03:25:45.618Z,12.7
2019-06-01T03:26:59.861Z,12.7
2019-06-01T03:28:14.047Z,12.7
2019-06-01T03:29:28.258Z,12.7
2019-06-01T03:30:42.368Z,12.8
2019-06-01T03:31:56.531Z,12.7
2019-06-01T03:34:25.229Z,12.8
2019-06-01T03:35:39.093Z,12.8
2019-06-01T03:36:53.305Z,12.8
2019-06-01T03:38:07.461Z,12.9
2019-06-01T03:39:21.959Z,12.8
2019-06-01T03:40:35.903Z,13
2019-06-01T03:43:04.195Z,12.8
2019-06-01T03:44:18.465Z,12.8
2019-06-01T03:46:46.738Z,12.9
2019-06-01T03:48:00.903Z,12.8
2019-06-01T03:49:15.142Z,13
2019-06-01T03:50:29.232Z,13
2019-06-01T03:51:43.553Z,13.1
2019-06-01T03:52:57.626Z,13.1
2019-06-01T03:54:11.759Z,13.1
2019-06-01T03:55:25.991Z,13.3
2019-06-01T03:56:40.124Z,13.2
2019-06-01T03:57:54.300Z,13.3
2019-06-01T03:59:08.495Z,13.3
2019-06-01T04:00:22.744Z,13.3
2019-06-01T04:01:36.816Z,13.3
2019-06-01T04:02:51.057Z,13.4
2019-06-01T04:04:05.376Z,13.5
2019-06-01T04:05:19.442Z,13.5
2019-06-01T04:06:33.525Z,13.5
2019-06-01T04:07:47.721Z,13.4
2019-06-01T04:09:01.975Z,13.5
2019-06-01T04:11:30.390Z,13.6
2019-06-01T04:12:44.421Z,13.6
2019-06-01T04:13:58.615Z,13.6
2019-06-01T04:15:12.890Z,13.7
2019-06-01T04:16:27.034Z,13.7
2019-06-01T04:17:41.127Z,13.7
2019-06-01T04:18:55.395Z,13.7
2019-06-01T04:20:09.481Z,13.8
2019-06-01T04:21:23.741Z,13.9
2019-06-01T04:22:37.824Z,13.9
2019-06-01T04:23:52.120Z,13.9
2019-06-01T04:25:06.264Z,14
2019-06-01T04:27:34.533Z,14.1
2019-06-01T04:28:48.738Z,14.2
2019-06-01T04:30:05.571Z,14.1
2019-06-01T04:31:17.084Z,14.3
2019-06-01T04:32:31.312Z,14.5
2019-06-01T04:33:45.424Z,14.8
2019-06-01T04:36:13.861Z,15
2019-06-01T04:37:28.018Z,15.2
2019-06-01T04:38:42.135Z,15.3
2019-06-01T04:39:56.399Z,15.2
2019-06-01T04:41:10.579Z,15.2
2019-06-01T04:42:24.621Z,15.4
2019-06-01T04:43:38.854Z,15.5
2019-06-01T04:44:52.964Z,15.9
2019-06-01T04:46:07.151Z,15.9
2019-06-01T04:47:21.283Z,15.9
2019-06-01T04:48:35.463Z,15.9
2019-06-01T04:49:49.635Z,16
2019-06-01T04:51:06.427Z,15.9
2019-06-01T04:52:18.039Z,15.9
2019-06-01T04:53:32.250Z,16
2019-06-01T04:54:46.299Z,16
2019-06-01T04:56:00.459Z,15.9
2019-06-01T04:57:14.648Z,15.9
2019-06-01T04:58:28.777Z,15.7
2019-06-01T05:00:57.173Z,15.7
2019-06-01T05:02:11.247Z,15.9
2019-06-01T05:04:39.670Z,16
2019-06-01T05:05:53.847Z,16
2019-06-01T05:07:07.941Z,15.9
2019-06-01T05:08:22.109Z,16.2
2019-06-01T05:09:36.244Z,16.5
2019-06-01T05:10:50.474Z,16.7
2019-06-01T05:12:04.500Z,16.9
2019-06-01T05:13:18.685Z,17.1
2019-06-01T05:15:46.962Z,17.4
2019-06-01T05:17:01.138Z,17.6
2019-06-01T05:18:15.271Z,17.9
2019-06-01T05:19:29.414Z,18.2
2019-06-01T05:20:43.619Z,18.3
2019-06-01T05:21:57.711Z,18.3
2019-06-01T05:23:11.950Z,18.5
2019-06-01T05:24:26.016Z,18.6
2019-06-01T05:25:40.162Z,18.8
2019-06-01T05:26:54.377Z,19.1
2019-06-01T05:28:08.448Z,18.9
2019-06-01T05:29:22.636Z,18.9
2019-06-01T05:30:36.741Z,18.9
2019-06-01T05:31:50.940Z,19.1
2019-06-01T05:33:05.157Z,19.3
2019-06-01T05:34:19.172Z,19.4
2019-06-01T05:35:33.311Z,19.2
2019-06-01T05:36:47.414Z,19.1
2019-06-01T05:40:29.973Z,19.4
2019-06-01T05:41:43.920Z,19.9
2019-06-01T05:42:58.204Z,20
2019-06-01T05:44:12.183Z,19.9
2019-06-01T05:46:40.436Z,19.9
2019-06-01T05:47:54.566Z,19.7
2019-06-01T05:49:08.669Z,19.8
2019-06-01T05:50:22.809Z,20
2019-06-01T05:51:36.912Z,20
2019-06-01T05:52:51.127Z,19.8
2019-06-01T05:54:05.148Z,19.9
2019-06-01T05:55:19.366Z,20.1
2019-06-01T05:56:33.387Z,20.3
2019-06-01T05:57:47.507Z,20.7
2019-06-01T05:59:01.668Z,20.5
2019-06-01T06:00:15.764Z,20.4
2019-06-01T06:01:29.881Z,20.7
2019-06-01T06:02:43.972Z,20.2
2019-06-01T06:03:58.185Z,20.2
2019-06-01T06:05:12.200Z,20.1
2019-06-01T06:06:26.333Z,19.9
2019-06-01T06:08:54.533Z,20.6
2019-06-01T06:10:08.667Z,20.5
2019-06-01T06:11:22.758Z,20.9
2019-06-01T06:12:36.877Z,20.9
2019-06-01T06:13:51.011Z,20.8
2019-06-01T06:16:19.236Z,21
2019-06-01T06:17:33.390Z,21
2019-06-01T06:18:47.420Z,21.1
2019-06-01T06:20:01.627Z,21.1
2019-06-01T06:21:15.643Z,21.4
2019-06-01T06:23:43.822Z,21.6
2019-06-01T06:24:58.533Z,21.8
2019-06-01T06:26:12.142Z,21.9
2019-06-01T06:27:26.142Z,21.7
2019-06-01T06:28:40.197Z,21.9
2019-06-01T06:29:54.265Z,22
2019-06-01T06:31:08.367Z,22.3
2019-06-01T06:32:22.447Z,22.4
2019-06-01T06:33:36.642Z,22
2019-06-01T06:34:50.653Z,22.4
2019-06-01T06:36:04.748Z,22.6
2019-06-01T06:37:18.813Z,23
2019-06-01T06:39:46.991Z,22.5
2019-06-01T06:41:01.074Z,22.7
2019-06-01T06:42:15.166Z,22.6
2019-06-01T06:43:29.336Z,22.3
2019-06-01T06:44:43.500Z,22.3
2019-06-01T06:45:57.416Z,22.2
2019-06-01T06:47:11.496Z,22.4
2019-06-01T06:48:25.632Z,22.7
2019-06-01T06:49:39.671Z,22.9
2019-06-01T06:50:53.788Z,23
2019-06-01T06:54:36.051Z,22.8
2019-06-01T06:57:04.140Z,22.9
2019-06-01T06:58:18.260Z,23
2019-06-01T06:59:32.301Z,23.1
2019-06-01T07:02:00.456Z,23.9
2019-06-01T07:03:14.557Z,24
2019-06-01T07:04:30.261Z,24.4
2019-06-01T07:05:44.598Z,24.4
2019-06-01T07:06:59.254Z,24.1
2019-06-01T07:08:13.321Z,24.1
2019-06-01T07:09:27.545Z,23.6
2019-06-01T07:10:39.016Z,23.7
2019-06-01T07:11:52.993Z,23.9
2019-06-01T07:13:07.164Z,23.5
2019-06-01T07:15:35.202Z,23.2
2019-06-01T07:16:49.264Z,23.3
2019-06-01T07:18:03.390Z,23.4
2019-06-01T07:19:17.458Z,23.5
2019-06-01T07:20:31.454Z,23.6
2019-06-01T07:21:45.501Z,23.4
2019-06-01T07:22:59.741Z,23.6
2019-06-01T07:24:13.787Z,23.6
2019-06-01T07:25:27.732Z,23.9
2019-06-01T07:26:41.805Z,23.7
2019-06-01T07:27:55.909Z,24
2019-06-01T07:30:23.948Z,24.2
2019-06-01T07:31:38.042Z,24.7
2019-06-01T07:32:52.146Z,24.5
2019-06-01T07:34:06.208Z,23.9
2019-06-01T07:35:20.636Z,23.9
2019-06-01T07:37:48.278Z,24.1
2019-06-01T07:39:02.328Z,24
2019-06-01T07:41:30.438Z,24.6
2019-06-01T07:43:58.574Z,25.2
2019-06-01T07:45:12.616Z,25.8
2019-06-01T07:46:26.672Z,25.9
2019-06-01T07:47:40.710Z,25.7
2019-06-01T07:48:59.368Z,25.4
2019-06-01T07:50:12.442Z,25.3
2019-06-01T07:51:22.852Z,24.8
2019-06-01T07:52:36.989Z,24.9
2019-06-01T07:53:50.928Z,24.9
2019-06-01T07:55:08.015Z,24.9
2019-06-01T07:56:19.134Z,24.7
2019-06-01T07:57:33.032Z,24.7
2019-06-01T07:58:47.061Z,24.4
2019-06-01T08:00:01.106Z,24.7
2019-06-01T08:01:15.153Z,25
2019-06-01T08:02:29.207Z,25
2019-06-01T08:03:43.309Z,25.1
2019-06-01T08:07:25.335Z,25.1
2019-06-01T08:08:39.353Z,25.2
2019-06-01T08:09:53.418Z,25.3
2019-06-01T08:11:07.555Z,25.8
2019-06-01T08:12:21.573Z,25.8
2019-06-01T08:13:35.548Z,26.5
2019-06-01T08:14:49.544Z,26.5
2019-06-01T08:16:03.608Z,26.4
2019-06-01T08:17:17.708Z,26.9
2019-06-01T08:18:31.670Z,27.3
2019-06-01T08:19:45.663Z,26.7
2019-06-01T08:20:59.698Z,25.9
2019-06-01T08:22:13.760Z,25.4
2019-06-01T08:23:27.773Z,25.5
2019-06-01T08:24:41.799Z,24.8
2019-06-01T08:25:55.800Z,24.7
2019-06-01T08:28:23.972Z,23.8
2019-06-01T08:29:37.965Z,23.5
2019-06-01T08:30:52.091Z,23.6
2019-06-01T08:32:06.085Z,23.5
2019-06-01T08:33:20.088Z,23.7
2019-06-01T08:34:34.139Z,23.7
2019-06-01T08:35:48.206Z,23.5
2019-06-01T08:37:02.248Z,23.5
2019-06-01T08:38:16.375Z,23.9
2019-06-01T08:39:38.133Z,24.1
2019-06-01T08:40:44.504Z,24.9
2019-06-01T08:41:58.451Z,25.5
2019-06-01T08:43:15.031Z,25.6
2019-06-01T08:44:26.548Z,25.9
2019-06-01T08:45:40.596Z,26.2
2019-06-01T08:46:54.603Z,26.4
2019-06-01T08:48:08.657Z,26.2
2019-06-01T08:49:22.658Z,26.3
2019-06-01T08:50:36.736Z,26.1
2019-06-01T08:51:50.726Z,26.5
2019-06-01T08:53:04.770Z,26.4
2019-06-01T08:54:18.784Z,26.7
2019-06-01T08:55:32.832Z,26.8
2019-06-01T08:56:46.854Z,26.8
2019-06-01T08:58:00.955Z,27.1
2019-06-01T08:59:14.886Z,26.3
2019-06-01T09:00:28.909Z,26.4
2019-06-01T09:01:42.939Z,27
2019-06-01T09:02:56.974Z,27.5
2019-06-01T09:04:10.983Z,27.3
2019-06-01T09:05:25.015Z,26.5
2019-06-01T09:06:39.130Z,27.1
2019-06-01T09:07:53.169Z,26.2
2019-06-01T09:09:07.095Z,26.3
2019-06-01T09:10:21.151Z,26.1
2019-06-01T09:11:35.112Z,26.1
2019-06-01T09:12:49.131Z,26.3
2019-06-01T09:14:03.169Z,26.1
2019-06-01T09:15:17.251Z,26.5
2019-06-01T09:16:31.311Z,26.5
2019-06-01T09:17:45.229Z,26.5
2019-06-01T09:19:00.427Z,26.4
2019-06-01T09:20:13.243Z,26.5
2019-06-01T09:21:27.357Z,26.4
2019-06-01T09:22:46.685Z,26.8
2019-06-01T09:23:55.289Z,27.1
2019-06-01T09:25:09.309Z,27.7
2019-06-01T09:26:23.397Z,27.7
2019-06-01T09:27:37.351Z,27.9
2019-06-01T09:28:51.329Z,27.7
2019-06-01T09:30:05.334Z,27.9
2019-06-01T09:31:19.429Z,28.1
2019-06-01T09:32:33.385Z,28
2019-06-01T09:33:47.445Z,28
2019-06-01T09:35:06.163Z,27.9
2019-06-01T09:36:15.382Z,27.9
2019-06-01T09:37:29.386Z,27.8
2019-06-01T09:38:43.411Z,27.6
2019-06-01T09:39:57.400Z,27.2
2019-06-01T09:41:11.463Z,27.4
2019-06-01T09:42:25.461Z,27.9
2019-06-01T09:43:39.526Z,27.8
2019-06-01T09:44:53.431Z,27.5
2019-06-01T09:46:07.424Z,27.6
2019-06-01T09:47:21.423Z,27.7
2019-06-01T09:48:35.561Z,27.8
2019-06-01T09:49:49.560Z,28.3
2019-06-01T09:51:03.517Z,28.5
2019-06-01T09:52:17.742Z,27.9
2019-06-01T09:53:31.501Z,28
2019-06-01T09:54:45.467Z,28.4
2019-06-01T09:55:59.482Z,27.6
2019-06-01T09:57:13.449Z,28.1
2019-06-01T09:58:27.440Z,28.3
2019-06-01T09:59:41.437Z,28.2
2019-06-01T10:00:55.463Z,28
2019-06-01T10:02:09.452Z,28.2
2019-06-01T10:03:23.450Z,28.9
2019-06-01T10:04:37.454Z,29.3
2019-06-01T10:05:51.609Z,29.5
2019-06-01T10:07:05.436Z,29.8
2019-06-01T10:08:19.442Z,29.3
2019-06-01T10:09:33.436Z,28.7
2019-06-01T10:10:47.424Z,28.5
2019-06-01T10:13:15.423Z,27.9
2019-06-01T10:14:29.489Z,27.8
2019-06-01T10:15:43.413Z,28.1
2019-06-01T10:16:57.425Z,28.6
2019-06-01T10:18:11.405Z,28.9
2019-06-01T10:20:39.392Z,28.2
2019-06-01T10:21:53.389Z,28
2019-06-01T10:23:07.410Z,27.5
2019-06-01T10:24:21.344Z,27.4
2019-06-01T10:25:35.473Z,27.6
2019-06-01T10:28:03.476Z,28.1
2019-06-01T10:29:17.367Z,28.3
2019-06-01T10:30:35.975Z,28.4
2019-06-01T10:31:50.337Z,28.4
2019-06-01T10:35:27.362Z,29.2
2019-06-01T10:36:41.466Z,29.5
2019-06-01T10:37:55.383Z,29.3
2019-06-01T10:39:09.352Z,29.4
2019-06-01T10:40:23.398Z,29
2019-06-01T10:41:37.390Z,29
2019-06-01T10:42:51.363Z,28.7
2019-06-01T10:44:05.371Z,29
2019-06-01T10:45:19.330Z,29.5
2019-06-01T10:46:33.338Z,29.5
2019-06-01T10:47:47.420Z,28.9
2019-06-01T10:49:01.320Z,29.2
2019-06-01T10:50:15.332Z,29
2019-06-01T10:51:29.326Z,29.1
2019-06-01T10:52:43.315Z,29
2019-06-01T10:53:57.715Z,29
2019-06-01T10:55:11.536Z,28.3
2019-06-01T10:57:39.333Z,27.8
2019-06-01T10:58:53.414Z,27.9
2019-06-01T11:00:07.451Z,28.1
2019-06-01T11:01:21.408Z,28.1
2019-06-01T11:02:35.331Z,28.6
2019-06-01T11:05:06.190Z,28.8
2019-06-01T11:06:17.332Z,28.7
2019-06-01T11:07:31.569Z,28.5
2019-06-01T11:08:45.326Z,28.6
2019-06-01T11:09:59.325Z,28.9
2019-06-01T11:13:41.347Z,28.9
2019-06-01T11:14:55.428Z,28.9
2019-06-01T11:16:09.347Z,28.6
2019-06-01T11:17:23.356Z,28
2019-06-01T11:19:51.385Z,28.7
2019-06-01T11:21:05.372Z,29
2019-06-01T11:23:33.405Z,28.7
2019-06-01T11:27:15.450Z,28.9
2019-06-01T11:28:29.438Z,28.5
2019-06-01T11:29:43.465Z,28.9
2019-06-01T11:30:57.580Z,29.1
2019-06-01T11:32:11.481Z,29.2
2019-06-01T11:34:39.521Z,30.4
2019-06-01T11:35:53.514Z,29.6
2019-06-01T11:37:07.499Z,29.3
2019-06-01T11:38:21.518Z,29.4
2019-06-01T11:39:39.316Z,29.4
2019-06-01T11:42:03.619Z,29.9
2019-06-01T11:43:22.962Z,29.9
2019-06-01T11:44:36.563Z,29.9
2019-06-01T11:45:45.622Z,29.3
2019-06-01T11:46:59.649Z,28.6
2019-06-01T11:48:13.533Z,28.9
2019-06-01T11:49:27.534Z,29.5
2019-06-01T11:50:41.546Z,29.8
2019-06-01T11:51:55.542Z,29.9
2019-06-01T11:53:09.561Z,29.7
2019-06-01T11:54:23.568Z,29.9
2019-06-01T11:55:37.667Z,30
2019-06-01T11:56:51.666Z,30.1
2019-06-01T11:58:05.667Z,30.4
2019-06-01T11:59:19.609Z,30.1
2019-06-01T12:00:33.602Z,30
2019-06-01T12:01:47.628Z,29.7
2019-06-01T12:03:01.751Z,30.1
2019-06-01T12:04:15.626Z,30.5
2019-06-01T12:05:29.614Z,30.3
2019-06-01T12:06:43.629Z,30.4
2019-06-01T12:07:57.743Z,30.8
2019-06-01T12:09:11.735Z,30.7
2019-06-01T12:10:25.634Z,30.4
2019-06-01T12:11:39.707Z,29.9
2019-06-01T12:12:53.670Z,29.7
2019-06-01T12:14:07.656Z,30
2019-06-01T12:15:21.648Z,30.4
2019-06-01T12:16:35.646Z,30.7
2019-06-01T12:17:49.669Z,30.3
2019-06-01T12:19:03.664Z,30.4
2019-06-01T12:20:18.483Z,30.4
2019-06-01T12:21:31.647Z,30.3
2019-06-01T12:22:45.657Z,30.3
2019-06-01T12:23:59.740Z,30.7
2019-06-01T12:25:13.796Z,30.4
